sensor_id;sensor_type;location;lat;lon;timestamp;temperature;humidity
324;DHT22;149;51.094;17.002;2022-08-19T00:01:50;25.20;99.90
324;DHT22;149;51.094;17.002;2022-08-19T00:04:27;25.20;99.90
324;DHT22;149;51.094;17.002;2022-08-19T00:06:55;25.20;99.90
324;DHT22;149;51.094;17.002;2022-08-19T00:09:23;25.20;99.90
324;DHT22;149;51.094;17.002;2022-08-19T00:11:51;25.20;99.90
324;DHT22;149;51.094;17.002;2022-08-19T00:14:19;25.30;99.90
324;DHT22;149;51.094;17.002;2022-08-19T00:16:48;25.10;99.90
324;DHT22;149;51.094;17.002;2022-08-19T00:19:16;25.00;99.90
324;DHT22;149;51.094;17.002;2022-08-19T00:21:43;24.90;99.90
324;DHT22;149;51.094;17.002;2022-08-19T00:24:11;25.00;99.90
324;DHT22;149;51.094;17.002;2022-08-19T00:26:40;24.80;99.90
324;DHT22;149;51.094;17.002;2022-08-19T00:29:09;24.70;99.90
324;DHT22;149;51.094;17.002;2022-08-19T00:31:37;24.60;99.90
324;DHT22;149;51.094;17.002;2022-08-19T00:34:04;24.50;99.90
324;DHT22;149;51.094;17.002;2022-08-19T00:36:31;24.30;99.90
324;DHT22;149;51.094;17.002;2022-08-19T00:39:05;24.20;99.90
324;DHT22;149;51.094;17.002;2022-08-19T00:41:33;24.10;99.90
324;DHT22;149;51.094;17.002;2022-08-19T00:44:19;24.20;99.90
324;DHT22;149;51.094;17.002;2022-08-19T00:46:55;24.10;99.90
324;DHT22;149;51.094;17.002;2022-08-19T00:49:48;24.10;99.90
324;DHT22;149;51.094;17.002;2022-08-19T00:52:27;24.20;99.90
324;DHT22;149;51.094;17.002;2022-08-19T00:54:56;24.30;99.90
324;DHT22;149;51.094;17.002;2022-08-19T00:57:30;24.30;99.90
324;DHT22;149;51.094;17.002;2022-08-19T01:00:00;24.30;99.90
324;DHT22;149;51.094;17.002;2022-08-19T01:02:30;24.10;99.90
324;DHT22;149;51.094;17.002;2022-08-19T01:05:00;23.80;99.90
324;DHT22;149;51.094;17.002;2022-08-19T01:07:27;23.80;99.90
324;DHT22;149;51.094;17.002;2022-08-19T01:10:05;23.60;99.90
324;DHT22;149;51.094;17.002;2022-08-19T01:12:37;23.60;99.90
324;DHT22;149;51.094;17.002;2022-08-19T01:15:07;23.70;99.90
324;DHT22;149;51.094;17.002;2022-08-19T01:17:36;23.80;99.90
324;DHT22;149;51.094;17.002;2022-08-19T01:20:13;23.90;99.90
324;DHT22;149;51.094;17.002;2022-08-19T01:22:48;23.80;99.90
324;DHT22;149;51.094;17.002;2022-08-19T01:25:19;23.70;99.90
324;DHT22;149;51.094;17.002;2022-08-19T01:27:52;23.70;99.90
324;DHT22;149;51.094;17.002;2022-08-19T01:30:31;23.70;99.90
324;DHT22;149;51.094;17.002;2022-08-19T01:32:59;23.80;99.90
324;DHT22;149;51.094;17.002;2022-08-19T01:35:28;23.70;99.90
324;DHT22;149;51.094;17.002;2022-08-19T01:37:59;23.70;99.90
324;DHT22;149;51.094;17.002;2022-08-19T01:40:30;23.70;99.90
324;DHT22;149;51.094;17.002;2022-08-19T01:42:59;23.70;99.90
324;DHT22;149;51.094;17.002;2022-08-19T01:45:28;23.70;99.90
324;DHT22;149;51.094;17.002;2022-08-19T01:47:57;23.80;99.90
324;DHT22;149;51.094;17.002;2022-08-19T01:50:29;23.70;99.90
324;DHT22;149;51.094;17.002;2022-08-19T01:52:57;23.80;99.90
324;DHT22;149;51.094;17.002;2022-08-19T01:55:29;23.80;99.90
324;DHT22;149;51.094;17.002;2022-08-19T01:58:00;23.80;99.90
324;DHT22;149;51.094;17.002;2022-08-19T02:00:31;23.70;99.90
324;DHT22;149;51.094;17.002;2022-08-19T02:02:58;23.60;99.90
324;DHT22;149;51.094;17.002;2022-08-19T02:05:27;23.60;99.90
324;DHT22;149;51.094;17.002;2022-08-19T02:07:56;23.50;99.90
324;DHT22;149;51.094;17.002;2022-08-19T02:10:24;23.50;99.90
324;DHT22;149;51.094;17.002;2022-08-19T02:12:53;23.50;99.90
324;DHT22;149;51.094;17.002;2022-08-19T02:15:20;23.30;99.90
324;DHT22;149;51.094;17.002;2022-08-19T02:17:48;23.30;99.90
324;DHT22;149;51.094;17.002;2022-08-19T02:20:16;23.30;99.90
324;DHT22;149;51.094;17.002;2022-08-19T02:22:43;23.20;99.90
324;DHT22;149;51.094;17.002;2022-08-19T02:25:14;23.20;99.90
324;DHT22;149;51.094;17.002;2022-08-19T02:27:42;23.10;99.90
324;DHT22;149;51.094;17.002;2022-08-19T02:30:13;23.10;99.90
324;DHT22;149;51.094;17.002;2022-08-19T02:32:42;23.00;99.90
324;DHT22;149;51.094;17.002;2022-08-19T02:35:12;22.90;99.90
324;DHT22;149;51.094;17.002;2022-08-19T02:37:41;22.80;99.90
324;DHT22;149;51.094;17.002;2022-08-19T02:40:29;22.80;99.90
324;DHT22;149;51.094;17.002;2022-08-19T02:42:56;22.80;99.90
324;DHT22;149;51.094;17.002;2022-08-19T02:45:23;22.80;99.90
324;DHT22;149;51.094;17.002;2022-08-19T02:47:51;22.90;99.90
324;DHT22;149;51.094;17.002;2022-08-19T02:50:17;22.80;99.90
324;DHT22;149;51.094;17.002;2022-08-19T02:52:48;22.80;99.90
324;DHT22;149;51.094;17.002;2022-08-19T02:55:15;22.70;99.90
324;DHT22;149;51.094;17.002;2022-08-19T02:57:42;22.70;99.90
324;DHT22;149;51.094;17.002;2022-08-19T03:00:10;22.60;99.90
324;DHT22;149;51.094;17.002;2022-08-19T03:02:40;22.60;99.90
324;DHT22;149;51.094;17.002;2022-08-19T03:05:09;22.70;99.90
324;DHT22;149;51.094;17.002;2022-08-19T03:07:36;22.70;99.90
324;DHT22;149;51.094;17.002;2022-08-19T03:10:04;22.60;99.90
324;DHT22;149;51.094;17.002;2022-08-19T03:12:35;22.50;99.90
324;DHT22;149;51.094;17.002;2022-08-19T03:15:05;22.60;99.90
324;DHT22;149;51.094;17.002;2022-08-19T03:17:34;22.60;99.90
324;DHT22;149;51.094;17.002;2022-08-19T03:20:03;22.60;99.90
324;DHT22;149;51.094;17.002;2022-08-19T03:22:30;22.60;99.90
324;DHT22;149;51.094;17.002;2022-08-19T03:24:57;22.50;99.90
324;DHT22;149;51.094;17.002;2022-08-19T03:27:25;22.40;99.90
324;DHT22;149;51.094;17.002;2022-08-19T03:29:59;22.40;99.90
324;DHT22;149;51.094;17.002;2022-08-19T03:32:27;22.40;99.90
324;DHT22;149;51.094;17.002;2022-08-19T03:35:00;22.40;99.90
324;DHT22;149;51.094;17.002;2022-08-19T03:37:27;22.30;99.90
324;DHT22;149;51.094;17.002;2022-08-19T03:39:54;22.20;99.90
324;DHT22;149;51.094;17.002;2022-08-19T03:42:22;22.30;99.90
324;DHT22;149;51.094;17.002;2022-08-19T03:45:10;22.20;99.90
324;DHT22;149;51.094;17.002;2022-08-19T03:47:38;22.20;99.90
324;DHT22;149;51.094;17.002;2022-08-19T03:50:05;22.10;99.90
324;DHT22;149;51.094;17.002;2022-08-19T03:52:32;22.10;99.90
324;DHT22;149;51.094;17.002;2022-08-19T03:54:59;22.10;99.90
324;DHT22;149;51.094;17.002;2022-08-19T03:57:26;22.10;99.90
324;DHT22;149;51.094;17.002;2022-08-19T03:59:58;22.20;99.90
324;DHT22;149;51.094;17.002;2022-08-19T04:02:38;22.20;99.90
324;DHT22;149;51.094;17.002;2022-08-19T04:05:08;22.10;99.90
324;DHT22;149;51.094;17.002;2022-08-19T04:07:34;22.20;99.90
324;DHT22;149;51.094;17.002;2022-08-19T04:10:03;22.20;99.90
324;DHT22;149;51.094;17.002;2022-08-19T04:12:30;22.10;99.90
324;DHT22;149;51.094;17.002;2022-08-19T04:15:01;22.10;99.90
324;DHT22;149;51.094;17.002;2022-08-19T04:17:31;22.20;99.90
324;DHT22;149;51.094;17.002;2022-08-19T04:20:07;22.30;99.90
324;DHT22;149;51.094;17.002;2022-08-19T04:22:34;22.30;99.90
324;DHT22;149;51.094;17.002;2022-08-19T04:25:02;22.40;99.90
324;DHT22;149;51.094;17.002;2022-08-19T04:27:30;22.40;99.90
324;DHT22;149;51.094;17.002;2022-08-19T04:30:00;22.60;99.90
324;DHT22;149;51.094;17.002;2022-08-19T04:32:26;22.60;99.90
324;DHT22;149;51.094;17.002;2022-08-19T04:34:53;22.80;99.90
324;DHT22;149;51.094;17.002;2022-08-19T04:37:42;22.90;99.90
324;DHT22;149;51.094;17.002;2022-08-19T04:40:11;22.90;99.90
324;DHT22;149;51.094;17.002;2022-08-19T04:42:59;22.80;99.90
324;DHT22;149;51.094;17.002;2022-08-19T04:45:27;22.90;99.90
324;DHT22;149;51.094;17.002;2022-08-19T04:48:05;23.00;99.90
324;DHT22;149;51.094;17.002;2022-08-19T04:50:53;23.20;99.90
324;DHT22;149;51.094;17.002;2022-08-19T04:53:30;23.20;99.90
324;DHT22;149;51.094;17.002;2022-08-19T04:56:09;23.30;99.90
324;DHT22;149;51.094;17.002;2022-08-19T04:58:38;23.50;99.90
324;DHT22;149;51.094;17.002;2022-08-19T05:01:05;23.70;99.90
324;DHT22;149;51.094;17.002;2022-08-19T05:03:34;23.60;99.90
324;DHT22;149;51.094;17.002;2022-08-19T05:06:09;23.60;99.90
324;DHT22;149;51.094;17.002;2022-08-19T05:08:39;23.70;99.90
324;DHT22;149;51.094;17.002;2022-08-19T05:11:19;23.50;99.90
324;DHT22;149;51.094;17.002;2022-08-19T05:13:52;23.70;99.90
324;DHT22;149;51.094;17.002;2022-08-19T05:16:21;23.80;99.90
324;DHT22;149;51.094;17.002;2022-08-19T05:18:49;23.70;99.90
324;DHT22;149;51.094;17.002;2022-08-19T05:21:35;23.70;99.90
324;DHT22;149;51.094;17.002;2022-08-19T05:24:23;23.80;99.90
324;DHT22;149;51.094;17.002;2022-08-19T05:26:53;23.90;99.90
324;DHT22;149;51.094;17.002;2022-08-19T05:29:25;24.00;99.90
324;DHT22;149;51.094;17.002;2022-08-19T05:31:58;24.00;99.90
324;DHT22;149;51.094;17.002;2022-08-19T05:34:29;24.00;99.90
324;DHT22;149;51.094;17.002;2022-08-19T05:36:59;24.10;99.90
324;DHT22;149;51.094;17.002;2022-08-19T05:39:29;24.20;99.90
324;DHT22;149;51.094;17.002;2022-08-19T05:42:02;24.30;99.90
324;DHT22;149;51.094;17.002;2022-08-19T05:44:31;24.30;99.90
324;DHT22;149;51.094;17.002;2022-08-19T05:47:00;24.40;99.90
324;DHT22;149;51.094;17.002;2022-08-19T05:49:29;24.50;99.90
324;DHT22;149;51.094;17.002;2022-08-19T05:51:56;24.60;99.90
324;DHT22;149;51.094;17.002;2022-08-19T05:54:23;24.80;99.90
324;DHT22;149;51.094;17.002;2022-08-19T05:56:51;24.90;99.90
324;DHT22;149;51.094;17.002;2022-08-19T05:59:20;25.10;99.90
324;DHT22;149;51.094;17.002;2022-08-19T06:01:53;25.10;99.90
324;DHT22;149;51.094;17.002;2022-08-19T06:04:23;25.30;99.90
324;DHT22;149;51.094;17.002;2022-08-19T06:06:52;25.60;99.90
324;DHT22;149;51.094;17.002;2022-08-19T06:09:21;25.70;99.90
324;DHT22;149;51.094;17.002;2022-08-19T06:11:57;25.70;99.90
324;DHT22;149;51.094;17.002;2022-08-19T06:14:32;25.70;99.90
324;DHT22;149;51.094;17.002;2022-08-19T06:17:05;25.80;99.90
324;DHT22;149;51.094;17.002;2022-08-19T06:19:33;26.00;99.90
324;DHT22;149;51.094;17.002;2022-08-19T06:22:07;26.20;99.90
324;DHT22;149;51.094;17.002;2022-08-19T06:24:34;26.40;99.90
324;DHT22;149;51.094;17.002;2022-08-19T06:27:04;26.90;99.90
324;DHT22;149;51.094;17.002;2022-08-19T06:29:32;27.10;99.90
324;DHT22;149;51.094;17.002;2022-08-19T06:32:02;27.40;99.90
324;DHT22;149;51.094;17.002;2022-08-19T06:34:32;27.80;99.90
324;DHT22;149;51.094;17.002;2022-08-19T06:37:02;28.10;99.90
324;DHT22;149;51.094;17.002;2022-08-19T06:39:38;28.30;99.90
324;DHT22;149;51.094;17.002;2022-08-19T06:42:06;28.90;99.90
324;DHT22;149;51.094;17.002;2022-08-19T06:44:37;29.40;99.90
324;DHT22;149;51.094;17.002;2022-08-19T06:47:11;30.00;99.90
324;DHT22;149;51.094;17.002;2022-08-19T06:49:48;30.40;99.90
324;DHT22;149;51.094;17.002;2022-08-19T06:52:15;30.80;99.90
324;DHT22;149;51.094;17.002;2022-08-19T06:54:42;31.10;99.90
324;DHT22;149;51.094;17.002;2022-08-19T06:57:23;31.50;99.90
324;DHT22;149;51.094;17.002;2022-08-19T06:59:51;31.90;99.90
324;DHT22;149;51.094;17.002;2022-08-19T07:02:19;32.20;99.90
324;DHT22;149;51.094;17.002;2022-08-19T07:04:47;32.40;99.90
324;DHT22;149;51.094;17.002;2022-08-19T07:07:19;33.60;99.90
324;DHT22;149;51.094;17.002;2022-08-19T07:09:48;35.20;99.90
324;DHT22;149;51.094;17.002;2022-08-19T07:12:24;35.70;99.90
324;DHT22;149;51.094;17.002;2022-08-19T07:14:52;36.10;99.90
324;DHT22;149;51.094;17.002;2022-08-19T07:17:20;37.10;99.90
324;DHT22;149;51.094;17.002;2022-08-19T07:19:47;37.80;99.90
324;DHT22;149;51.094;17.002;2022-08-19T07:22:14;38.50;98.70
324;DHT22;149;51.094;17.002;2022-08-19T07:24:42;39.70;97.30
324;DHT22;149;51.094;17.002;2022-08-19T07:27:17;40.40;94.20
324;DHT22;149;51.094;17.002;2022-08-19T07:29:50;40.40;93.80
324;DHT22;149;51.094;17.002;2022-08-19T07:32:23;41.10;91.00
324;DHT22;149;51.094;17.002;2022-08-19T07:34:54;41.30;90.00
324;DHT22;149;51.094;17.002;2022-08-19T07:37:23;41.70;85.80
324;DHT22;149;51.094;17.002;2022-08-19T07:39:53;42.70;80.80
324;DHT22;149;51.094;17.002;2022-08-19T07:42:20;42.70;78.40
324;DHT22;149;51.094;17.002;2022-08-19T07:44:48;42.70;77.30
324;DHT22;149;51.094;17.002;2022-08-19T07:47:16;43.00;75.60
324;DHT22;149;51.094;17.002;2022-08-19T07:50:06;43.90;72.70
324;DHT22;149;51.094;17.002;2022-08-19T07:52:34;44.40;69.30
324;DHT22;149;51.094;17.002;2022-08-19T07:55:04;44.20;68.40
324;DHT22;149;51.094;17.002;2022-08-19T07:57:31;43.50;68.30
324;DHT22;149;51.094;17.002;2022-08-19T07:59:58;42.90;68.00
324;DHT22;149;51.094;17.002;2022-08-19T08:02:25;42.80;68.10
324;DHT22;149;51.094;17.002;2022-08-19T08:04:52;43.10;67.60
324;DHT22;149;51.094;17.002;2022-08-19T08:07:39;43.00;67.20
324;DHT22;149;51.094;17.002;2022-08-19T08:10:24;42.90;65.60
324;DHT22;149;51.094;17.002;2022-08-19T08:12:52;42.00;67.70
324;DHT22;149;51.094;17.002;2022-08-19T08:15:36;41.20;69.20
324;DHT22;149;51.094;17.002;2022-08-19T08:18:09;41.00;70.40
324;DHT22;149;51.094;17.002;2022-08-19T08:20:37;39.30;74.10
324;DHT22;149;51.094;17.002;2022-08-19T08:23:04;38.60;76.70
324;DHT22;149;51.094;17.002;2022-08-19T08:25:49;37.40;79.50
324;DHT22;149;51.094;17.002;2022-08-19T08:28:17;39.10;77.50
324;DHT22;149;51.094;17.002;2022-08-19T08:30:46;41.20;71.40
324;DHT22;149;51.094;17.002;2022-08-19T08:33:21;41.30;70.10
324;DHT22;149;51.094;17.002;2022-08-19T08:36:00;41.30;68.20
324;DHT22;149;51.094;17.002;2022-08-19T08:38:30;42.10;66.30
324;DHT22;149;51.094;17.002;2022-08-19T08:41:13;41.20;68.10
324;DHT22;149;51.094;17.002;2022-08-19T08:43:49;40.00;71.40
324;DHT22;149;51.094;17.002;2022-08-19T08:46:38;40.00;71.50
324;DHT22;149;51.094;17.002;2022-08-19T08:49:28;40.70;70.20
324;DHT22;149;51.094;17.002;2022-08-19T08:54:41;44.00;62.10
324;DHT22;149;51.094;17.002;2022-08-19T09:00:27;44.30;60.80
324;DHT22;149;51.094;17.002;2022-08-19T09:02:56;44.60;58.70
324;DHT22;149;51.094;17.002;2022-08-19T09:05:34;44.80;59.00
324;DHT22;149;51.094;17.002;2022-08-19T09:08:23;44.80;58.70
324;DHT22;149;51.094;17.002;2022-08-19T09:10:55;44.20;59.00
324;DHT22;149;51.094;17.002;2022-08-19T09:13:58;44.20;59.00
324;DHT22;149;51.094;17.002;2022-08-19T09:16:28;44.70;58.30
324;DHT22;149;51.094;17.002;2022-08-19T09:19:02;44.50;58.00
324;DHT22;149;51.094;17.002;2022-08-19T09:21:32;44.70;57.70
324;DHT22;149;51.094;17.002;2022-08-19T09:24:00;45.40;55.90
324;DHT22;149;51.094;17.002;2022-08-19T09:26:29;45.90;55.30
324;DHT22;149;51.094;17.002;2022-08-19T09:29:16;44.60;55.90
324;DHT22;149;51.094;17.002;2022-08-19T09:31:43;43.40;57.20
324;DHT22;149;51.094;17.002;2022-08-19T09:34:10;41.60;60.30
324;DHT22;149;51.094;17.002;2022-08-19T09:36:48;40.20;62.60
324;DHT22;149;51.094;17.002;2022-08-19T09:39:18;38.20;66.50
324;DHT22;149;51.094;17.002;2022-08-19T09:41:46;37.50;68.70
324;DHT22;149;51.094;17.002;2022-08-19T09:44:14;36.70;70.50
324;DHT22;149;51.094;17.002;2022-08-19T09:46:43;36.40;72.50
324;DHT22;149;51.094;17.002;2022-08-19T09:49:10;35.60;73.80
324;DHT22;149;51.094;17.002;2022-08-19T09:51:38;35.20;75.20
324;DHT22;149;51.094;17.002;2022-08-19T09:54:06;35.00;77.70
324;DHT22;149;51.094;17.002;2022-08-19T09:56:36;34.90;78.00
324;DHT22;149;51.094;17.002;2022-08-19T09:59:03;35.00;79.90
324;DHT22;149;51.094;17.002;2022-08-19T10:01:32;35.10;79.10
324;DHT22;149;51.094;17.002;2022-08-19T10:04:00;35.10;80.80
324;DHT22;149;51.094;17.002;2022-08-19T10:06:40;35.00;78.00
324;DHT22;149;51.094;17.002;2022-08-19T10:09:13;34.90;79.00
324;DHT22;149;51.094;17.002;2022-08-19T10:11:41;34.90;79.70
324;DHT22;149;51.094;17.002;2022-08-19T10:14:19;34.50;80.30
324;DHT22;149;51.094;17.002;2022-08-19T10:16:49;34.40;82.80
324;DHT22;149;51.094;17.002;2022-08-19T10:19:19;34.30;83.80
324;DHT22;149;51.094;17.002;2022-08-19T10:21:52;34.30;82.50
324;DHT22;149;51.094;17.002;2022-08-19T10:24:19;34.20;83.40
324;DHT22;149;51.094;17.002;2022-08-19T10:26:47;34.10;82.70
324;DHT22;149;51.094;17.002;2022-08-19T10:29:25;34.00;82.50
324;DHT22;149;51.094;17.002;2022-08-19T10:32:06;34.00;85.20
324;DHT22;149;51.094;17.002;2022-08-19T10:34:39;34.00;83.00
324;DHT22;149;51.094;17.002;2022-08-19T10:37:16;34.00;82.60
324;DHT22;149;51.094;17.002;2022-08-19T10:39:54;34.30;82.50
324;DHT22;149;51.094;17.002;2022-08-19T10:42:21;34.90;81.40
324;DHT22;149;51.094;17.002;2022-08-19T10:44:49;35.20;79.80
324;DHT22;149;51.094;17.002;2022-08-19T10:47:17;35.70;78.10
324;DHT22;149;51.094;17.002;2022-08-19T10:49:52;35.60;78.30
324;DHT22;149;51.094;17.002;2022-08-19T10:52:40;35.60;80.90
324;DHT22;149;51.094;17.002;2022-08-19T10:55:21;35.30;78.40
324;DHT22;149;51.094;17.002;2022-08-19T10:58:11;34.80;79.70
324;DHT22;149;51.094;17.002;2022-08-19T11:00:39;35.10;80.80
324;DHT22;149;51.094;17.002;2022-08-19T11:03:07;35.00;80.50
324;DHT22;149;51.094;17.002;2022-08-19T11:05:35;35.00;80.90
324;DHT22;149;51.094;17.002;2022-08-19T11:08:06;35.00;82.40
324;DHT22;149;51.094;17.002;2022-08-19T11:10:49;34.90;81.70
324;DHT22;149;51.094;17.002;2022-08-19T11:13:16;34.80;80.80
324;DHT22;149;51.094;17.002;2022-08-19T11:15:42;34.50;82.50
324;DHT22;149;51.094;17.002;2022-08-19T11:18:14;34.30;83.00
324;DHT22;149;51.094;17.002;2022-08-19T11:20:41;34.40;85.20
324;DHT22;149;51.094;17.002;2022-08-19T11:23:07;34.50;83.30
324;DHT22;149;51.094;17.002;2022-08-19T11:25:38;34.60;84.40
324;DHT22;149;51.094;17.002;2022-08-19T11:28:05;34.60;84.80
324;DHT22;149;51.094;17.002;2022-08-19T11:30:32;34.60;83.40
324;DHT22;149;51.094;17.002;2022-08-19T11:33:00;34.70;83.70
324;DHT22;149;51.094;17.002;2022-08-19T11:35:27;35.00;81.50
324;DHT22;149;51.094;17.002;2022-08-19T11:37:56;35.10;82.50
324;DHT22;149;51.094;17.002;2022-08-19T11:40:28;35.10;81.80
324;DHT22;149;51.094;17.002;2022-08-19T11:42:55;35.20;81.40
324;DHT22;149;51.094;17.002;2022-08-19T11:45:24;35.20;78.50
324;DHT22;149;51.094;17.002;2022-08-19T11:47:53;35.20;78.20
324;DHT22;149;51.094;17.002;2022-08-19T11:50:20;35.30;76.30
324;DHT22;149;51.094;17.002;2022-08-19T11:52:48;35.40;76.20
324;DHT22;149;51.094;17.002;2022-08-19T11:55:16;35.60;75.60
324;DHT22;149;51.094;17.002;2022-08-19T11:57:43;35.60;77.00
324;DHT22;149;51.094;17.002;2022-08-19T12:00:11;35.70;73.60
324;DHT22;149;51.094;17.002;2022-08-19T12:02:40;35.80;73.60
324;DHT22;149;51.094;17.002;2022-08-19T12:05:07;35.90;73.20
324;DHT22;149;51.094;17.002;2022-08-19T12:07:40;36.00;75.00
324;DHT22;149;51.094;17.002;2022-08-19T12:10:08;35.90;74.90
324;DHT22;149;51.094;17.002;2022-08-19T12:12:37;35.50;73.30
324;DHT22;149;51.094;17.002;2022-08-19T12:15:09;35.50;75.60
324;DHT22;149;51.094;17.002;2022-08-19T12:17:37;35.30;75.90
324;DHT22;149;51.094;17.002;2022-08-19T12:20:05;35.20;76.20
324;DHT22;149;51.094;17.002;2022-08-19T12:22:33;35.00;74.90
324;DHT22;149;51.094;17.002;2022-08-19T12:24:59;35.10;78.60
324;DHT22;149;51.094;17.002;2022-08-19T12:27:27;34.80;81.40
324;DHT22;149;51.094;17.002;2022-08-19T12:30:09;34.80;83.00
324;DHT22;149;51.094;17.002;2022-08-19T12:32:37;34.80;82.80
324;DHT22;149;51.094;17.002;2022-08-19T12:35:06;34.90;82.70
324;DHT22;149;51.094;17.002;2022-08-19T12:37:33;35.00;83.60
324;DHT22;149;51.094;17.002;2022-08-19T12:40:01;34.90;82.90
324;DHT22;149;51.094;17.002;2022-08-19T12:42:30;34.70;83.40
324;DHT22;149;51.094;17.002;2022-08-19T12:44:57;34.70;82.70
324;DHT22;149;51.094;17.002;2022-08-19T12:47:24;34.70;83.00
324;DHT22;149;51.094;17.002;2022-08-19T12:49:53;34.70;83.70
324;DHT22;149;51.094;17.002;2022-08-19T12:52:25;34.70;78.60
324;DHT22;149;51.094;17.002;2022-08-19T12:54:55;34.90;76.90
324;DHT22;149;51.094;17.002;2022-08-19T12:57:25;35.00;75.90
324;DHT22;149;51.094;17.002;2022-08-19T12:59:59;35.00;74.60
324;DHT22;149;51.094;17.002;2022-08-19T13:02:26;34.80;74.60
324;DHT22;149;51.094;17.002;2022-08-19T13:04:53;35.00;75.10
324;DHT22;149;51.094;17.002;2022-08-19T13:07:20;34.90;75.00
324;DHT22;149;51.094;17.002;2022-08-19T13:09:51;34.80;74.20
324;DHT22;149;51.094;17.002;2022-08-19T13:12:18;34.60;76.20
324;DHT22;149;51.094;17.002;2022-08-19T13:14:50;34.60;75.60
324;DHT22;149;51.094;17.002;2022-08-19T13:17:20;34.60;74.80
324;DHT22;149;51.094;17.002;2022-08-19T13:19:47;34.70;75.40
324;DHT22;149;51.094;17.002;2022-08-19T13:22:15;34.80;76.00
324;DHT22;149;51.094;17.002;2022-08-19T13:24:42;34.80;75.20
324;DHT22;149;51.094;17.002;2022-08-19T13:27:13;34.80;75.60
324;DHT22;149;51.094;17.002;2022-08-19T13:29:42;34.90;75.70
324;DHT22;149;51.094;17.002;2022-08-19T13:32:29;35.00;75.40
324;DHT22;149;51.094;17.002;2022-08-19T13:35:16;35.20;75.70
324;DHT22;149;51.094;17.002;2022-08-19T13:37:43;35.30;75.10
324;DHT22;149;51.094;17.002;2022-08-19T13:40:20;35.40;74.70
324;DHT22;149;51.094;17.002;2022-08-19T13:42:51;35.50;74.60
324;DHT22;149;51.094;17.002;2022-08-19T13:45:24;35.70;74.00
324;DHT22;149;51.094;17.002;2022-08-19T13:47:53;35.70;75.20
324;DHT22;149;51.094;17.002;2022-08-19T13:50:29;35.70;75.80
324;DHT22;149;51.094;17.002;2022-08-19T13:52:57;35.80;76.30
324;DHT22;149;51.094;17.002;2022-08-19T13:55:25;36.00;75.50
324;DHT22;149;51.094;17.002;2022-08-19T13:57:54;36.20;75.90
324;DHT22;149;51.094;17.002;2022-08-19T14:00:25;36.60;75.80
324;DHT22;149;51.094;17.002;2022-08-19T14:02:54;36.80;75.10
324;DHT22;149;51.094;17.002;2022-08-19T14:05:23;36.60;73.50
324;DHT22;149;51.094;17.002;2022-08-19T14:07:51;36.40;74.20
324;DHT22;149;51.094;17.002;2022-08-19T14:10:19;36.30;73.00
324;DHT22;149;51.094;17.002;2022-08-19T14:12:48;36.20;74.90
324;DHT22;149;51.094;17.002;2022-08-19T14:15:15;35.90;76.20
324;DHT22;149;51.094;17.002;2022-08-19T14:17:43;35.50;78.20
324;DHT22;149;51.094;17.002;2022-08-19T14:20:12;35.30;79.00
324;DHT22;149;51.094;17.002;2022-08-19T14:22:45;35.30;79.80
324;DHT22;149;51.094;17.002;2022-08-19T14:25:23;35.20;80.60
324;DHT22;149;51.094;17.002;2022-08-19T14:27:51;35.00;81.80
324;DHT22;149;51.094;17.002;2022-08-19T14:30:24;34.60;82.60
324;DHT22;149;51.094;17.002;2022-08-19T14:32:57;34.30;84.00
324;DHT22;149;51.094;17.002;2022-08-19T14:35:26;33.80;84.60
324;DHT22;149;51.094;17.002;2022-08-19T14:37:53;33.40;85.60
324;DHT22;149;51.094;17.002;2022-08-19T14:40:24;33.40;87.50
324;DHT22;149;51.094;17.002;2022-08-19T14:42:57;33.40;87.40
324;DHT22;149;51.094;17.002;2022-08-19T14:45:27;33.30;87.80
324;DHT22;149;51.094;17.002;2022-08-19T14:47:54;33.30;88.00
324;DHT22;149;51.094;17.002;2022-08-19T14:50:22;33.20;90.00
324;DHT22;149;51.094;17.002;2022-08-19T14:52:49;33.30;89.70
324;DHT22;149;51.094;17.002;2022-08-19T14:55:18;33.30;88.90
324;DHT22;149;51.094;17.002;2022-08-19T14:57:45;33.20;89.10
324;DHT22;149;51.094;17.002;2022-08-19T15:00:13;33.20;89.20
324;DHT22;149;51.094;17.002;2022-08-19T15:02:41;33.10;90.10
324;DHT22;149;51.094;17.002;2022-08-19T15:05:11;32.80;91.00
324;DHT22;149;51.094;17.002;2022-08-19T15:07:40;32.50;92.70
324;DHT22;149;51.094;17.002;2022-08-19T15:10:09;32.40;94.10
324;DHT22;149;51.094;17.002;2022-08-19T15:12:39;32.20;95.00
324;DHT22;149;51.094;17.002;2022-08-19T15:15:12;32.20;96.00
324;DHT22;149;51.094;17.002;2022-08-19T15:17:41;32.20;96.90
324;DHT22;149;51.094;17.002;2022-08-19T15:20:22;31.90;97.30
324;DHT22;149;51.094;17.002;2022-08-19T15:22:50;31.50;98.70
324;DHT22;149;51.094;17.002;2022-08-19T15:25:21;31.30;99.90
324;DHT22;149;51.094;17.002;2022-08-19T15:27:49;31.20;99.90
324;DHT22;149;51.094;17.002;2022-08-19T15:30:21;31.00;99.90
324;DHT22;149;51.094;17.002;2022-08-19T15:32:49;30.80;99.90
324;DHT22;149;51.094;17.002;2022-08-19T15:35:16;30.70;99.90
324;DHT22;149;51.094;17.002;2022-08-19T15:37:50;30.80;99.90
324;DHT22;149;51.094;17.002;2022-08-19T15:40:19;30.70;99.90
324;DHT22;149;51.094;17.002;2022-08-19T15:42:51;30.50;99.90
324;DHT22;149;51.094;17.002;2022-08-19T15:45:23;30.30;99.90
324;DHT22;149;51.094;17.002;2022-08-19T15:48:03;30.10;99.90
324;DHT22;149;51.094;17.002;2022-08-19T15:50:38;30.00;99.90
324;DHT22;149;51.094;17.002;2022-08-19T15:53:09;30.00;99.90
324;DHT22;149;51.094;17.002;2022-08-19T15:55:42;29.90;99.90
324;DHT22;149;51.094;17.002;2022-08-19T15:58:13;29.80;99.90
324;DHT22;149;51.094;17.002;2022-08-19T16:01:06;29.70;99.90
324;DHT22;149;51.094;17.002;2022-08-19T16:03:55;29.70;99.90
324;DHT22;149;51.094;17.002;2022-08-19T16:07:01;29.90;99.90
324;DHT22;149;51.094;17.002;2022-08-19T16:09:52;30.00;99.90
324;DHT22;149;51.094;17.002;2022-08-19T16:12:19;29.70;99.90
324;DHT22;149;51.094;17.002;2022-08-19T16:14:47;29.60;99.90
324;DHT22;149;51.094;17.002;2022-08-19T16:17:15;29.70;99.90
324;DHT22;149;51.094;17.002;2022-08-19T16:19:44;29.60;99.90
324;DHT22;149;51.094;17.002;2022-08-19T16:22:18;29.50;99.90
324;DHT22;149;51.094;17.002;2022-08-19T16:24:45;29.40;99.90
324;DHT22;149;51.094;17.002;2022-08-19T16:27:12;29.20;99.90
324;DHT22;149;51.094;17.002;2022-08-19T16:29:42;29.10;99.90
324;DHT22;149;51.094;17.002;2022-08-19T16:32:11;29.00;99.90
324;DHT22;149;51.094;17.002;2022-08-19T16:34:39;29.00;99.90
324;DHT22;149;51.094;17.002;2022-08-19T16:37:08;29.00;99.90
324;DHT22;149;51.094;17.002;2022-08-19T16:39:37;29.10;99.90
324;DHT22;149;51.094;17.002;2022-08-19T16:42:07;29.10;99.90
324;DHT22;149;51.094;17.002;2022-08-19T16:44:41;29.20;99.90
324;DHT22;149;51.094;17.002;2022-08-19T16:47:13;29.30;99.90
324;DHT22;149;51.094;17.002;2022-08-19T16:49:40;29.30;99.90